sensor_id;sensor_type;location;lat;lon;timestamp;pressure;altitude;pressure_sealevel;temperature;humidity
25869;BME280;13688;53.154;18.136;2023-04-25T00:03:57;99686.33;;;10.00;100.00
25869;BME280;13688;53.154;18.136;2023-04-25T00:09:21;99687.47;;;9.98;100.00
25869;BME280;13688;53.154;18.136;2023-04-25T00:14:44;99690.56;;;10.03;100.00
25869;BME280;13688;53.154;18.136;2023-04-25T00:20:10;99681.55;;;10.04;100.00
25869;BME280;13688;53.154;18.136;2023-04-25T00:25:34;99678.97;;;10.02;100.00
25869;BME280;13688;53.154;18.136;2023-04-25T00:30:56;99680.26;;;9.98;100.00
25869;BME280;13688;53.154;18.136;2023-04-25T00:36:20;99685.62;;;9.89;100.00
25869;BME280;13688;53.154;18.136;2023-04-25T00:41:42;99673.34;;;9.86;100.00
25869;BME280;13688;53.154;18.136;2023-04-25T00:47:06;99687.31;;;9.80;100.00
25869;BME280;13688;53.154;18.136;2023-04-25T00:52:29;99683.62;;;9.71;100.00
25869;BME280;13688;53.154;18.136;2023-04-25T00:57:55;99687.98;;;9.63;100.00
25869;BME280;13688;53.154;18.136;2023-04-25T01:03:18;99698.13;;;9.50;100.00
25869;BME280;13688;53.154;18.136;2023-04-25T01:08:43;99699.94;;;9.39;100.00
25869;BME280;13688;53.154;18.136;2023-04-25T01:14:05;99695.95;;;9.34;100.00
25869;BME280;13688;53.154;18.136;2023-04-25T01:19:27;99708.62;;;9.22;100.00
25869;BME280;13688;53.154;18.136;2023-04-25T01:24:51;99697.02;;;9.12;99.24
25869;BME280;13688;53.154;18.136;2023-04-25T01:30:14;99694.57;;;8.99;98.10
25869;BME280;13688;53.154;18.136;2023-04-25T01:35:37;99691.10;;;8.87;97.10
25869;BME280;13688;53.154;18.136;2023-04-25T01:40:59;99697.16;;;8.80;96.35
25869;BME280;13688;53.154;18.136;2023-04-25T01:46:22;99703.45;;;8.69;95.89
25869;BME280;13688;53.154;18.136;2023-04-25T01:51:45;99710.58;;;8.59;95.59
25869;BME280;13688;53.154;18.136;2023-04-25T01:57:07;99706.11;;;8.48;95.21
25869;BME280;13688;53.154;18.136;2023-04-25T02:02:30;99707.88;;;8.38;95.06
25869;BME280;13688;53.154;18.136;2023-04-25T02:07:53;99720.07;;;8.31;94.59
25869;BME280;13688;53.154;18.136;2023-04-25T02:13:15;99715.62;;;8.20;93.73
25869;BME280;13688;53.154;18.136;2023-04-25T02:18:37;99713.58;;;8.13;92.77
25869;BME280;13688;53.154;18.136;2023-04-25T02:24:02;99724.79;;;8.07;92.58
25869;BME280;13688;53.154;18.136;2023-04-25T02:29:25;99721.66;;;8.01;92.92
25869;BME280;13688;53.154;18.136;2023-04-25T02:34:47;99724.34;;;7.90;93.57
25869;BME280;13688;53.154;18.136;2023-04-25T02:40:11;99721.35;;;7.84;94.61
25869;BME280;13688;53.154;18.136;2023-04-25T02:45:34;99726.08;;;7.80;95.64
25869;BME280;13688;53.154;18.136;2023-04-25T02:50:56;99742.14;;;7.80;96.36
25869;BME280;13688;53.154;18.136;2023-04-25T02:56:18;99732.81;;;7.74;96.88
25869;BME280;13688;53.154;18.136;2023-04-25T03:01:41;99734.14;;;7.69;97.21
25869;BME280;13688;53.154;18.136;2023-04-25T03:07:03;99735.73;;;7.60;97.20
25869;BME280;13688;53.154;18.136;2023-04-25T03:12:25;99735.77;;;7.49;96.49
25869;BME280;13688;53.154;18.136;2023-04-25T03:17:48;99748.05;;;7.40;95.29
25869;BME280;13688;53.154;18.136;2023-04-25T03:23:10;99737.86;;;7.34;94.69
25869;BME280;13688;53.154;18.136;2023-04-25T03:28:33;99752.94;;;7.24;94.53
25869;BME280;13688;53.154;18.136;2023-04-25T03:33:56;99753.66;;;7.15;94.22
25869;BME280;13688;53.154;18.136;2023-04-25T03:39:18;99752.31;;;7.09;93.91
25869;BME280;13688;53.154;18.136;2023-04-25T03:44:40;99753.03;;;7.00;93.83
25869;BME280;13688;53.154;18.136;2023-04-25T03:50:02;99753.03;;;6.89;94.06
25869;BME280;13688;53.154;18.136;2023-04-25T03:55:25;99766.00;;;6.82;94.38
25869;BME280;13688;53.154;18.136;2023-04-25T04:00:49;99761.49;;;6.72;94.60
25869;BME280;13688;53.154;18.136;2023-04-25T04:06:23;99772.78;;;6.75;95.19
25869;BME280;13688;53.154;18.136;2023-04-25T04:11:46;99786.23;;;6.63;94.66
25869;BME280;13688;53.154;18.136;2023-04-25T04:17:08;99784.99;;;6.55;94.51
25869;BME280;13688;53.154;18.136;2023-04-25T04:22:31;99793.97;;;6.54;94.34
25869;BME280;13688;53.154;18.136;2023-04-25T04:27:54;99806.59;;;6.52;94.00
25869;BME280;13688;53.154;18.136;2023-04-25T04:33:16;99808.42;;;6.52;93.60
25869;BME280;13688;53.154;18.136;2023-04-25T04:38:40;99810.23;;;6.51;93.12
25869;BME280;13688;53.154;18.136;2023-04-25T04:44:04;99814.61;;;6.52;92.56
25869;BME280;13688;53.154;18.136;2023-04-25T04:49:27;99821.66;;;6.53;91.93
25869;BME280;13688;53.154;18.136;2023-04-25T04:54:49;99817.28;;;6.52;91.20
25869;BME280;13688;53.154;18.136;2023-04-25T05:00:12;99819.63;;;6.57;90.45
25869;BME280;13688;53.154;18.136;2023-04-25T05:05:36;99827.39;;;6.60;89.90
25869;BME280;13688;53.154;18.136;2023-04-25T05:10:58;99830.52;;;6.54;89.31
25869;BME280;13688;53.154;18.136;2023-04-25T05:16:22;99830.63;;;6.52;88.89
25869;BME280;13688;53.154;18.136;2023-04-25T05:21:44;99826.88;;;6.55;88.37
25869;BME280;13688;53.154;18.136;2023-04-25T05:27:07;99823.14;;;6.57;88.06
25869;BME280;13688;53.154;18.136;2023-04-25T05:32:29;99825.69;;;6.59;87.62
25869;BME280;13688;53.154;18.136;2023-04-25T05:37:51;99828.24;;;6.60;87.05
25869;BME280;13688;53.154;18.136;2023-04-25T05:43:14;99837.14;;;6.72;86.41
25869;BME280;13688;53.154;18.136;2023-04-25T05:48:37;99839.39;;;6.89;85.87
25869;BME280;13688;53.154;18.136;2023-04-25T05:54:01;99846.31;;;6.92;85.08
25869;BME280;13688;53.154;18.136;2023-04-25T05:59:24;99844.30;;;7.07;84.55
25869;BME280;13688;53.154;18.136;2023-04-25T06:04:47;99847.18;;;7.04;83.60
25869;BME280;13688;53.154;18.136;2023-04-25T06:10:13;99846.01;;;7.19;83.05
25869;BME280;13688;53.154;18.136;2023-04-25T06:15:35;99857.22;;;7.35;82.71
25869;BME280;13688;53.154;18.136;2023-04-25T06:20:58;99849.08;;;7.48;82.11
25869;BME280;13688;53.154;18.136;2023-04-25T06:26:20;99850.40;;;7.42;81.53
25869;BME280;13688;53.154;18.136;2023-04-25T06:31:42;99840.20;;;7.36;81.46
25869;BME280;13688;53.154;18.136;2023-04-25T06:37:05;99847.12;;;7.28;81.20
25869;BME280;13688;53.154;18.136;2023-04-25T06:42:27;99847.50;;;7.34;81.10
25869;BME280;13688;53.154;18.136;2023-04-25T06:47:49;99850.17;;;7.34;80.70
25869;BME280;13688;53.154;18.136;2023-04-25T06:53:11;99846.16;;;7.40;80.28
25869;BME280;13688;53.154;18.136;2023-04-25T06:58:34;99846.05;;;7.64;79.74
25869;BME280;13688;53.154;18.136;2023-04-25T07:03:57;99852.34;;;7.96;78.95
25869;BME280;13688;53.154;18.136;2023-04-25T07:09:20;99845.14;;;8.08;77.68
25869;BME280;13688;53.154;18.136;2023-04-25T07:14:43;99836.44;;;8.38;76.43
25869;BME280;13688;53.154;18.136;2023-04-25T07:20:07;99840.10;;;8.37;74.91
25869;BME280;13688;53.154;18.136;2023-04-25T07:25:30;99841.49;;;8.84;73.81
25869;BME280;13688;53.154;18.136;2023-04-25T07:30:54;99854.97;;;8.94;71.46
25869;BME280;13688;53.154;18.136;2023-04-25T07:36:16;99850.45;;;9.15;70.29
25869;BME280;13688;53.154;18.136;2023-04-25T07:41:40;99851.77;;;9.21;69.45
25869;BME280;13688;53.154;18.136;2023-04-25T07:47:08;99849.80;;;9.23;69.44
25869;BME280;13688;53.154;18.136;2023-04-25T07:52:38;99847.91;;;9.14;67.95
25869;BME280;13688;53.154;18.136;2023-04-25T07:58:00;99848.41;;;9.50;68.10
25869;BME280;13688;53.154;18.136;2023-04-25T08:03:24;99854.67;;;10.00;66.18
25869;BME280;13688;53.154;18.136;2023-04-25T08:08:47;99853.69;;;10.01;63.00
25869;BME280;13688;53.154;18.136;2023-04-25T08:14:09;99864.22;;;9.83;63.92
25869;BME280;13688;53.154;18.136;2023-04-25T08:19:31;99855.73;;;9.78;64.21
25869;BME280;13688;53.154;18.136;2023-04-25T08:24:54;99868.66;;;9.63;64.08
25869;BME280;13688;53.154;18.136;2023-04-25T08:30:17;99865.77;;;9.76;65.25
25869;BME280;13688;53.154;18.136;2023-04-25T08:35:39;99876.98;;;9.60;66.35
25869;BME280;13688;53.154;18.136;2023-04-25T08:41:03;99879.76;;;9.80;67.00
25869;BME280;13688;53.154;18.136;2023-04-25T08:46:26;99887.53;;;9.83;66.32
25869;BME280;13688;53.154;18.136;2023-04-25T08:51:51;99886.86;;;9.90;66.29
25869;BME280;13688;53.154;18.136;2023-04-25T08:57:20;99888.34;;;9.73;65.78
25869;BME280;13688;53.154;18.136;2023-04-25T09:02:43;99877.20;;;10.18;66.14
25869;BME280;13688;53.154;18.136;2023-04-25T09:08:07;99886.03;;;10.30;64.90
25869;BME280;13688;53.154;18.136;2023-04-25T09:13:31;99888.34;;;10.04;65.32
25869;BME280;13688;53.154;18.136;2023-04-25T09:18:53;99894.87;;;9.81;66.18
25869;BME280;13688;53.154;18.136;2023-04-25T09:24:16;99908.62;;;9.57;67.24
25869;BME280;13688;53.154;18.136;2023-04-25T09:29:49;99915.16;;;9.43;68.29
25869;BME280;13688;53.154;18.136;2023-04-25T09:35:23;99913.44;;;9.63;68.43
25869;BME280;13688;53.154;18.136;2023-04-25T09:40:42;99907.88;;;9.75;68.04
25869;BME280;13688;53.154;18.136;2023-04-25T09:46:08;99921.14;;;10.08;67.15
25869;BME280;13688;53.154;18.136;2023-04-25T09:51:31;99922.66;;;10.31;65.90
25869;BME280;13688;53.154;18.136;2023-04-25T09:56:57;99918.22;;;10.80;63.55
25869;BME280;13688;53.154;18.136;2023-04-25T10:02:29;99915.83;;;11.15;61.85
25869;BME280;13688;53.154;18.136;2023-04-25T10:07:57;99926.88;;;11.22;61.02
25869;BME280;13688;53.154;18.136;2023-04-25T10:13:19;99934.36;;;11.28;57.58
25869;BME280;13688;53.154;18.136;2023-04-25T10:18:42;99925.19;;;11.11;56.26
25869;BME280;13688;53.154;18.136;2023-04-25T10:24:06;99927.56;;;10.76;56.56
25869;BME280;13688;53.154;18.136;2023-04-25T10:29:30;99942.48;;;10.40;58.80
25869;BME280;13688;53.154;18.136;2023-04-25T10:34:55;99936.80;;;10.23;61.68
25869;BME280;13688;53.154;18.136;2023-04-25T10:40:28;99953.34;;;10.28;61.94
25869;BME280;13688;53.154;18.136;2023-04-25T10:45:59;99936.66;;;10.25;62.12
25869;BME280;13688;53.154;18.136;2023-04-25T10:51:33;99937.59;;;10.54;62.25
25869;BME280;13688;53.154;18.136;2023-04-25T10:56:58;99939.02;;;10.68;60.76
25869;BME280;13688;53.154;18.136;2023-04-25T11:02:21;99942.88;;;10.95;60.00
25869;BME280;13688;53.154;18.136;2023-04-25T11:07:51;99940.48;;;11.21;59.00
25869;BME280;13688;53.154;18.136;2023-04-25T11:13:16;99938.34;;;11.24;58.16
25869;BME280;13688;53.154;18.136;2023-04-25T11:18:42;99929.56;;;11.32;57.54
25869;BME280;13688;53.154;18.136;2023-04-25T11:24:07;99950.39;;;11.30;57.40
25869;BME280;13688;53.154;18.136;2023-04-25T11:29:31;99943.29;;;11.09;58.02
25869;BME280;13688;53.154;18.136;2023-04-25T11:34:56;99949.49;;;10.62;58.63
25869;BME280;13688;53.154;18.136;2023-04-25T11:40:20;99945.54;;;10.75;60.49
25869;BME280;13688;53.154;18.136;2023-04-25T11:45:46;99946.41;;;11.05;60.56
25869;BME280;13688;53.154;18.136;2023-04-25T11:51:08;99943.17;;;11.21;59.54
25869;BME280;13688;53.154;18.136;2023-04-25T11:56:30;99951.22;;;10.82;58.74
25869;BME280;13688;53.154;18.136;2023-04-25T12:01:55;99958.16;;;10.94;59.24
25869;BME280;13688;53.154;18.136;2023-04-25T12:07:18;99959.55;;;10.79;59.82
25869;BME280;13688;53.154;18.136;2023-04-25T12:12:45;99952.72;;;10.55;60.78
25869;BME280;13688;53.154;18.136;2023-04-25T12:18:08;99961.92;;;10.53;61.14
25869;BME280;13688;53.154;18.136;2023-04-25T12:23:32;99965.23;;;10.95;61.22
25869;BME280;13688;53.154;18.136;2023-04-25T12:28:55;99967.64;;;11.08;59.91
25869;BME280;13688;53.154;18.136;2023-04-25T12:34:18;99972.88;;;11.19;58.94
25869;BME280;13688;53.154;18.136;2023-04-25T12:39:41;99962.27;;;11.17;56.57
25869;BME280;13688;53.154;18.136;2023-04-25T12:45:05;99955.48;;;11.33;55.30
25869;BME280;13688;53.154;18.136;2023-04-25T12:50:29;99961.83;;;11.61;55.18
25869;BME280;13688;53.154;18.136;2023-04-25T12:55:52;99960.42;;;11.37;56.03
25869;BME280;13688;53.154;18.136;2023-04-25T13:01:15;99951.91;;;11.61;57.08
25869;BME280;13688;53.154;18.136;2023-04-25T13:06:37;99957.18;;;11.24;56.76
25869;BME280;13688;53.154;18.136;2023-04-25T13:12:00;99963.84;;;11.10;57.70
25869;BME280;13688;53.154;18.136;2023-04-25T13:17:23;99954.92;;;11.00;57.70
25869;BME280;13688;53.154;18.136;2023-04-25T13:22:46;99951.65;;;11.26;57.12
25869;BME280;13688;53.154;18.136;2023-04-25T13:28:10;99963.70;;;11.12;57.18
25869;BME280;13688;53.154;18.136;2023-04-25T13:33:33;99972.62;;;11.03;58.36
25869;BME280;13688;53.154;18.136;2023-04-25T13:38:55;99973.94;;;10.58;60.96
25869;BME280;13688;53.154;18.136;2023-04-25T13:44:18;99969.87;;;10.03;63.67
25869;BME280;13688;53.154;18.136;2023-04-25T13:49:41;99975.16;;;9.63;63.29
25869;BME280;13688;53.154;18.136;2023-04-25T13:55:04;99962.19;;;9.89;63.11
25869;BME280;13688;53.154;18.136;2023-04-25T14:00:27;99972.03;;;10.09;63.72
25869;BME280;13688;53.154;18.136;2023-04-25T14:05:53;99973.73;;;10.10;64.31
25869;BME280;13688;53.154;18.136;2023-04-25T14:11:16;99978.23;;;10.30;64.38
25869;BME280;13688;53.154;18.136;2023-04-25T14:16:39;99972.59;;;10.83;63.86
25869;BME280;13688;53.154;18.136;2023-04-25T14:22:03;99974.17;;;11.34;62.65
25869;BME280;13688;53.154;18.136;2023-04-25T14:27:26;99977.70;;;11.54;60.68
25869;BME280;13688;53.154;18.136;2023-04-25T14:32:49;99973.16;;;11.55;60.32
25869;BME280;13688;53.154;18.136;2023-04-25T14:38:11;99985.64;;;11.27;60.54
25869;BME280;13688;53.154;18.136;2023-04-25T14:43:35;100016.16;;;9.86;60.58
25869;BME280;13688;53.154;18.136;2023-04-25T14:48:58;100011.36;;;9.27;62.69
25869;BME280;13688;53.154;18.136;2023-04-25T14:54:23;100023.21;;;9.13;64.89
25869;BME280;13688;53.154;18.136;2023-04-25T14:59:46;100029.14;;;8.84;67.15
25869;BME280;13688;53.154;18.136;2023-04-25T15:05:09;100033.45;;;8.53;69.87
25869;BME280;13688;53.154;18.136;2023-04-25T15:10:32;100043.17;;;8.21;72.75
25869;BME280;13688;53.154;18.136;2023-04-25T15:15:55;100038.62;;;7.99;75.44
25869;BME280;13688;53.154;18.136;2023-04-25T15:21:18;100044.23;;;7.96;76.76
25869;BME280;13688;53.154;18.136;2023-04-25T15:26:41;100041.94;;;8.02;77.25
25869;BME280;13688;53.154;18.136;2023-04-25T15:32:03;100049.84;;;8.15;77.54
25869;BME280;13688;53.154;18.136;2023-04-25T15:37:27;100050.14;;;8.35;77.76
25869;BME280;13688;53.154;18.136;2023-04-25T15:42:51;100049.16;;;8.47;77.79
25869;BME280;13688;53.154;18.136;2023-04-25T15:48:13;100046.12;;;8.63;77.67
25869;BME280;13688;53.154;18.136;2023-04-25T15:53:37;100040.48;;;8.77;77.32
25869;BME280;13688;53.154;18.136;2023-04-25T15:59:00;100049.73;;;8.84;76.16
25869;BME280;13688;53.154;18.136;2023-04-25T16:04:23;100053.37;;;8.94;75.09
25869;BME280;13688;53.154;18.136;2023-04-25T16:09:47;100047.88;;;8.96;73.75
25869;BME280;13688;53.154;18.136;2023-04-25T16:15:11;100049.02;;;8.82;69.45
25869;BME280;13688;53.154;18.136;2023-04-25T16:20:34;100049.47;;;8.87;66.53
25869;BME280;13688;53.154;18.136;2023-04-25T16:25:56;100056.34;;;8.80;66.36
25869;BME280;13688;53.154;18.136;2023-04-25T16:31:19;100066.69;;;8.73;66.30
25869;BME280;13688;53.154;18.136;2023-04-25T16:36:42;100069.00;;;8.67;66.42
25869;BME280;13688;53.154;18.136;2023-04-25T16:42:05;100066.70;;;8.62;66.80
25869;BME280;13688;53.154;18.136;2023-04-25T16:47:27;100069.86;;;8.56;67.24
25869;BME280;13688;53.154;18.136;2023-04-25T16:52:50;100066.94;;;8.48;67.94
25869;BME280;13688;53.154;18.136;2023-04-25T16:58:13;100075.09;;;8.46;68.43
25869;BME280;13688;53.154;18.136;2023-04-25T17:03:37;100069.99;;;8.43;69.15
25869;BME280;13688;53.154;18.136;2023-04-25T17:09:01;100066.94;;;8.37;69.60
25869;BME280;13688;53.154;18.136;2023-04-25T17:14:25;100073.27;;;8.36;70.06
25869;BME280;13688;53.154;18.136;2023-04-25T17:19:48;100076.92;;;8.35;70.49
25869;BME280;13688;53.154;18.136;2023-04-25T17:25:13;100091.05;;;8.37;71.12
25869;BME280;13688;53.154;18.136;2023-04-25T17:30:36;100096.02;;;8.30;71.81
25869;BME280;13688;53.154;18.136;2023-04-25T17:35:59;100105.37;;;8.24;72.25
25869;BME280;13688;53.154;18.136;2023-04-25T17:41:25;100110.00;;;8.22;72.59
25869;BME280;13688;53.154;18.136;2023-04-25T17:46:49;100115.70;;;8.18;73.32
25869;BME280;13688;53.154;18.136;2023-04-25T17:52:11;100118.11;;;8.10;73.78
25869;BME280;13688;53.154;18.136;2023-04-25T17:57:34;100127.82;;;7.99;74.03
25869;BME280;13688;53.154;18.136;2023-04-25T18:02:57;100141.87;;;7.79;73.70
25869;BME280;13688;53.154;18.136;2023-04-25T18:08:20;100142.80;;;7.67;74.27
25869;BME280;13688;53.154;18.136;2023-04-25T18:13:42;100164.53;;;7.38;75.54
25869;BME280;13688;53.154;18.136;2023-04-25T18:19:05;100169.91;;;6.89;78.67
25869;BME280;13688;53.154;18.136;2023-04-25T18:24:33;100175.92;;;6.67;81.94
25869;BME280;13688;53.154;18.136;2023-04-25T18:29:55;100181.36;;;6.53;84.77
25869;BME280;13688;53.154;18.136;2023-04-25T18:35:18;100181.80;;;6.47;86.93
25869;BME280;13688;53.154;18.136;2023-04-25T18:40:41;100191.30;;;6.38;88.75
25869;BME280;13688;53.154;18.136;2023-04-25T18:46:05;100198.86;;;6.31;90.33
25869;BME280;13688;53.154;18.136;2023-04-25T18:51:33;100215.73;;;6.32;91.71
25869;BME280;13688;53.154;18.136;2023-04-25T18:56:57;100220.97;;;6.34;93.13
25869;BME280;13688;53.154;18.136;2023-04-25T19:02:22;100227.16;;;6.34;94.34
25869;BME280;13688;53.154;18.136;2023-04-25T19:07:46;100230.05;;;6.31;95.19
25869;BME280;13688;53.154;18.136;2023-04-25T19:13:09;100230.80;;;6.33;96.01
25869;BME280;13688;53.154;18.136;2023-04-25T19:18:32;100241.23;;;6.23;96.23
25869;BME280;13688;53.154;18.136;2023-04-25T19:23:54;100245.73;;;6.23;95.21
25869;BME280;13688;53.154;18.136;2023-04-25T19:29:18;100251.68;;;6.14;92.69
25869;BME280;13688;53.154;18.136;2023-04-25T19:34:42;100264.14;;;6.00;89.88
25869;BME280;13688;53.154;18.136;2023-04-25T19:40:06;100259.61;;;5.74;87.58
25869;BME280;13688;53.154;18.136;2023-04-25T19:45:32;100253.81;;;5.67;85.90
25869;BME280;13688;53.154;18.136;2023-04-25T19:50:55;100261.86;;;5.53;84.72
25869;BME280;13688;53.154;18.136;2023-04-25T19:56:17;100266.08;;;5.29;84.32
25869;BME280;13688;53.154;18.136;2023-04-25T20:01:41;100264.66;;;5.09;84.07
25869;BME280;13688;53.154;18.136;2023-04-25T20:07:05;100269.70;;;4.99;83.14
25869;BME280;13688;53.154;18.136;2023-04-25T20:12:29;100265.61;;;4.79;82.25
25869;BME280;13688;53.154;18.136;2023-04-25T20:17:51;100262.55;;;4.71;81.82
25869;BME280;13688;53.154;18.136;2023-04-25T20:23:13;100271.64;;;4.53;82.20
25869;BME280;13688;53.154;18.136;2023-04-25T20:28:36;100278.56;;;4.41;82.31
25869;BME280;13688;53.154;18.136;2023-04-25T20:34:00;100276.12;;;4.22;82.62
25869;BME280;13688;53.154;18.136;2023-04-25T20:39:22;100276.09;;;4.08;83.33
25869;BME280;13688;53.154;18.136;2023-04-25T20:44:44;100284.27;;;3.89;84.08
25869;BME280;13688;53.154;18.136;2023-04-25T20:50:07;100290.02;;;3.82;84.53
25869;BME280;13688;53.154;18.136;2023-04-25T20:55:30;100293.47;;;3.68;85.18
25869;BME280;13688;53.154;18.136;2023-04-25T21:00:52;100300.81;;;3.47;86.06
25869;BME280;13688;53.154;18.136;2023-04-25T21:06:15;100294.64;;;3.31;87.14
25869;BME280;13688;53.154;18.136;2023-04-25T21:11:38;100300.98;;;3.28;88.41
25869;BME280;13688;53.154;18.136;2023-04-25T21:17:00;100297.61;;;3.09;89.77
25869;BME280;13688;53.154;18.136;2023-04-25T21:22:23;100299.09;;;2.97;90.98
25869;BME280;13688;53.154;18.136;2023-04-25T21:27:46;100294.98;;;2.92;92.29
25869;BME280;13688;53.154;18.136;2023-04-25T21:33:08;100300.01;;;2.80;93.58
25869;BME280;13688;53.154;18.136;2023-04-25T21:38:31;100293.60;;;2.67;94.71
25869;BME280;13688;53.154;18.136;2023-04-25T21:43:53;100297.67;;;2.57;95.62
25869;BME280;13688;53.154;18.136;2023-04-25T21:49:15;100295.41;;;2.49;96.26
25869;BME280;13688;53.154;18.136;2023-04-25T21:54:38;100299.08;;;2.47;96.45
25869;BME280;13688;53.154;18.136;2023-04-25T22:00:00;100296.52;;;2.45;96.31
25869;BME280;13688;53.154;18.136;2023-04-25T22:05:30;100298.94;;;2.33;96.02
25869;BME280;13688;53.154;18.136;2023-04-25T22:10:53;100296.58;;;2.26;95.62
25869;BME280;13688;53.154;18.136;2023-04-25T22:16:16;100301.42;;;2.36;95.31
25869;BME280;13688;53.154;18.136;2023-04-25T22:21:38;100308.53;;;2.35;94.60
25869;BME280;13688;53.154;18.136;2023-04-25T22:27:01;100309.14;;;2.40;93.73
25869;BME280;13688;53.154;18.136;2023-04-25T22:32:24;100316.02;;;2.44;92.63
25869;BME280;13688;53.154;18.136;2023-04-25T22:37:47;100309.23;;;2.56;91.34
25869;BME280;13688;53.154;18.136;2023-04-25T22:43:09;100302.20;;;2.55;89.83
25869;BME280;13688;53.154;18.136;2023-04-25T22:48:31;100311.58;;;2.62;88.44
25869;BME280;13688;53.154;18.136;2023-04-25T22:53:54;100312.57;;;2.59;87.29
25869;BME280;13688;53.154;18.136;2023-04-25T22:59:16;100310.64;;;2.63;86.59
25869;BME280;13688;53.154;18.136;2023-04-25T23:04:39;100310.16;;;2.72;86.06
25869;BME280;13688;53.154;18.136;2023-04-25T23:10:02;100308.97;;;2.78;85.42
25869;BME280;13688;53.154;18.136;2023-04-25T23:15:25;100302.32;;;2.86;84.63
25869;BME280;13688;53.154;18.136;2023-04-25T23:20:49;100314.34;;;2.94;83.60
25869;BME280;13688;53.154;18.136;2023-04-25T23:26:13;100314.17;;;2.97;82.80
25869;BME280;13688;53.154;18.136;2023-04-25T23:31:35;100316.42;;;3.04;82.12
25869;BME280;13688;53.154;18.136;2023-04-25T23:36:58;100316.25;;;3.07;81.63
25869;BME280;13688;53.154;18.136;2023-04-25T23:42:21;100318.77;;;3.10;81.45
25869;BME280;13688;53.154;18.136;2023-04-25T23:47:43;100315.09;;;3.13;81.37
25869;BME280;13688;53.154;18.136;2023-04-25T23:53:06;100315.09;;;3.13;81.33
25869;BME280;13688;53.154;18.136;2023-04-25T23:58:29;100323.65;;;3.18;81.39
